EETN

Tallinn Airport

Tallinn, Estonia
METAR EETN 222120Z 24006KT 190V260 9999 SCT039 06/02 Q1007 NOSIG
Observed Flight Rules
Oct-22 @ 21:20 UTC (15 minutes ago) Visual Flight Rules
Wind Visibility Clouds
240° at 6 knots 10,000+ meters
  • Scattered at 3,900' AGL
Temperatures Readings
Current 6°C / 43°F
Dewpoint 2°C / 36°F
Humidity 76%
Altimeter 29.73" Hg
Pressure 1007 hPa
Elevation 40
METAR EETN 222120Z 24006KT 190V260 9999 SCT039 06/02 Q1007 NOSIG
Observed Flight Rules
Oct-22 @ 21:20 UTC
(15 minutes ago)
VFR
Wind Visibility
240° at 6 knots 10,000+ meters
Clouds
  • Scattered at 3,900' AGL
Temperature Dewpoint
6°C / 43°F 2°C / 36°F
Humidity Altimeter Pressure
76% 29.73" Hg 1007 hPa